Time;durP1;ratioP1;P1;durP2;ratioP2;P2;SDS_P1;SDS_P2;PMS_P1;PMS_P2;Temp;Humidity;BMP_temperature;BMP_pressure;BME280_temperature;BME280_humidity;BME280_pressure;Samples;Min_cycle;Max_cycle;Signal;HPM_P1;HPM_P2
2023/11/07 00:00:39;;;;;;;5.43;1.50;;;8.30;85.30;;;;;;5074453;28;20194;-73
2023/11/07 00:03:05;;;;;;;2.97;1.40;;;8.20;85.20;;;;;;5077868;28;20188;-71
2023/11/07 00:05:31;;;;;;;1.53;1.17;;;8.20;85.30;;;;;;5074552;28;20672;-74
2023/11/07 00:07:56;;;;;;;1.67;1.17;;;8.30;85.20;;;;;;5069853;28;20668;-73
2023/11/07 00:10:27;;;;;;;3.10;1.30;;;8.30;84.90;;;;;;5054528;28;20492;-74
2023/11/07 00:12:53;;;;;;;1.77;1.20;;;8.40;84.60;;;;;;5053121;28;20196;-73
2023/11/07 00:15:20;;;;;;;3.00;1.60;;;8.40;84.30;;;;;;5054151;28;20774;-71
2023/11/07 00:17:45;;;;;;;1.77;1.03;;;8.40;84.10;;;;;;5053923;28;20226;-73
2023/11/07 00:20:11;;;;;;;4.27;1.50;;;8.50;83.70;;;;;;5053865;28;20419;-73
2023/11/07 00:22:37;;;;;;;1.70;1.37;;;8.60;82.80;;;;;;5052661;28;20187;-74
2023/11/07 00:25:04;;;;;;;1.53;0.97;;;8.60;82.80;;;;;;5053424;28;20211;-73
2023/11/07 00:27:29;;;;;;;2.23;1.00;;;8.70;82.70;;;;;;5035594;28;20250;-73
2023/11/07 00:29:55;;;;;;;2.03;1.43;;;8.60;82.70;;;;;;5053457;28;20438;-72
2023/11/07 00:32:20;;;;;;;2.87;1.67;;;8.60;83.10;;;;;;5053527;28;20262;-73
2023/11/07 00:34:46;;;;;;;2.17;1.50;;;8.60;83.30;;;;;;5056314;28;20204;-73
2023/11/07 00:37:12;;;;;;;2.27;1.40;;;8.50;83.40;;;;;;5058146;28;20659;-74
2023/11/07 00:39:37;;;;;;;3.20;1.40;;;8.40;83.40;;;;;;5057632;28;20217;-72
2023/11/07 00:42:04;;;;;;;3.57;1.40;;;8.40;83.70;;;;;;5062702;28;20195;-74
2023/11/07 00:44:31;;;;;;;4.50;1.50;;;8.40;83.30;;;;;;5078375;28;20223;-73
2023/11/07 00:46:56;;;;;;;3.27;1.50;;;8.40;83.60;;;;;;5057596;28;20423;-74
2023/11/07 00:49:22;;;;;;;1.50;1.20;;;8.40;83.60;;;;;;5060946;28;20437;-74
2023/11/07 00:51:48;;;;;;;1.70;1.03;;;8.40;83.40;;;;;;5058035;28;20423;-73
2023/11/07 00:54:15;;;;;;;2.80;1.47;;;8.40;83.40;;;;;;5056720;28;20231;-73
2023/11/07 00:56:41;;;;;;;5.07;1.73;;;8.30;83.60;;;;;;5056777;28;20426;-74
2023/11/07 00:59:07;;;;;;;2.80;1.67;;;8.30;83.80;;;;;;5054001;28;20471;-73
2023/11/07 01:01:32;;;;;;;3.53;1.77;;;8.20;83.80;;;;;;5058783;28;20499;-74
2023/11/07 01:03:58;;;;;;;2.20;1.30;;;8.10;84.10;;;;;;5073373;28;20207;-74
2023/11/07 01:06:24;;;;;;;4.00;1.63;;;8.00;84.40;;;;;;5055696;28;20215;-71
2023/11/07 01:08:49;;;;;;;2.30;1.40;;;8.00;84.30;;;;;;5054041;28;20294;-73
2023/11/07 01:11:15;;;;;;;1.57;1.10;;;8.00;84.30;;;;;;5053124;28;20195;-74
2023/11/07 01:13:40;;;;;;;6.53;1.40;;;8.10;84.10;;;;;;5053227;28;20204;-74
2023/11/07 01:16:07;;;;;;;1.80;1.27;;;8.20;83.70;;;;;;5053245;28;20572;-74
2023/11/07 01:18:32;;;;;;;3.30;1.47;;;8.20;83.70;;;;;;5053132;28;20288;-74
2023/11/07 01:20:58;;;;;;;1.93;1.30;;;8.20;83.60;;;;;;5052802;28;20505;-73
2023/11/07 01:23:24;;;;;;;1.67;1.30;;;8.00;84.00;;;;;;5052539;28;20331;-72
2023/11/07 01:25:49;;;;;;;3.43;1.70;;;8.00;84.30;;;;;;5053836;28;20192;-75
2023/11/07 01:28:15;;;;;;;2.63;1.53;;;7.80;84.70;;;;;;5056082;28;20240;-74
2023/11/07 01:30:41;;;;;;;2.50;1.30;;;7.60;85.50;;;;;;5053619;28;20199;-73
2023/11/07 01:33:06;;;;;;;3.13;1.90;;;7.40;86.00;;;;;;5052036;28;20287;-72
2023/11/07 01:35:32;;;;;;;2.90;1.53;;;7.30;86.60;;;;;;5053498;28;20662;-73
2023/11/07 01:37:57;;;;;;;2.63;1.50;;;7.20;87.00;;;;;;5054218;28;20212;-73
2023/11/07 01:40:23;;;;;;;4.77;1.60;;;7.10;87.30;;;;;;5054794;28;20549;-72
2023/11/07 01:42:50;;;;;;;5.30;1.73;;;7.00;87.40;;;;;;5058594;28;20199;-73
2023/11/07 01:45:16;;;;;;;3.00;1.60;;;6.90;87.70;;;;;;5073246;28;20212;-73
2023/11/07 01:47:44;;;;;;;3.27;1.60;;;6.90;88.00;;;;;;5064229;28;20424;-74
2023/11/07 01:50:11;;;;;;;3.73;1.50;;;6.80;88.10;;;;;;5054602;28;20477;-74
2023/11/07 01:52:40;;;;;;;2.40;1.70;;;6.80;88.30;;;;;;5051097;28;20450;-72
2023/11/07 01:55:08;;;;;;;2.30;1.40;;;6.80;88.40;;;;;;5052459;28;20456;-72
2023/11/07 01:57:35;;;;;;;3.10;1.50;;;6.80;88.40;;;;;;5053165;28;20430;-72
2023/11/07 02:00:08;;;;;;;4.13;1.87;;;6.70;88.30;;;;;;5052613;28;20453;-73
2023/11/07 02:02:37;;;;;;;3.53;1.80;;;6.80;88.30;;;;;;5051983;28;20787;-72
2023/11/07 02:05:03;;;;;;;3.00;1.67;;;6.80;88.10;;;;;;5063942;28;20446;-72
2023/11/07 02:07:28;;;;;;;2.90;1.70;;;6.80;88.30;;;;;;5083626;28;20468;-71
2023/11/07 02:09:54;;;;;;;2.83;1.30;;;6.90;88.10;;;;;;5075509;28;20418;-72
2023/11/07 02:12:20;;;;;;;3.70;1.63;;;6.90;88.00;;;;;;5077052;28;20670;-73
2023/11/07 02:14:45;;;;;;;5.83;2.10;;;6.90;88.00;;;;;;5072970;28;20625;-74
2023/11/07 02:17:11;;;;;;;5.83;1.43;;;6.80;88.00;;;;;;5073255;28;20195;-72
2023/11/07 02:19:36;;;;;;;2.33;1.67;;;6.90;87.80;;;;;;5072854;28;20223;-73
2023/11/07 02:22:07;;;;;;;2.80;1.63;;;6.90;87.80;;;;;;5073455;28;20196;-73
2023/11/07 02:24:33;;;;;;;2.43;1.37;;;6.80;87.80;;;;;;5073368;28;20203;-74
2023/11/07 02:26:59;;;;;;;4.13;1.70;;;6.80;87.70;;;;;;5060247;28;20489;-73
2023/11/07 02:29:25;;;;;;;4.47;1.70;;;6.90;87.80;;;;;;5053920;28;20422;-73
2023/11/07 02:31:51;;;;;;;4.80;1.73;;;7.00;87.70;;;;;;5054151;28;20193;-71
2023/11/07 02:34:19;;;;;;;2.80;1.80;;;7.00;87.30;;;;;;5054062;28;20274;-73
2023/11/07 02:36:46;;;;;;;4.23;1.47;;;7.00;87.00;;;;;;5052750;28;20436;-73
2023/11/07 02:39:15;;;;;;;2.23;1.50;;;7.00;86.90;;;;;;5053174;28;20466;-72
2023/11/07 02:41:42;;;;;;;2.50;1.37;;;7.00;86.80;;;;;;5036871;28;20434;-72
2023/11/07 02:44:09;;;;;;;2.73;1.60;;;6.90;86.80;;;;;;5070440;28;20430;-73
2023/11/07 02:46:37;;;;;;;1.70;1.30;;;6.90;86.90;;;;;;5064385;28;20419;-73
2023/11/07 02:49:03;;;;;;;2.67;1.13;;;6.90;86.90;;;;;;5061507;28;20485;-73
2023/11/07 02:51:29;;;;;;;1.73;1.17;;;6.90;86.90;;;;;;5041991;28;20989;-73
2023/11/07 02:53:55;;;;;;;3.90;1.33;;;6.80;86.90;;;;;;5055497;28;20439;-74
2023/11/07 02:56:25;;;;;;;3.93;1.70;;;6.90;86.90;;;;;;5052730;28;20180;-74
2023/11/07 02:58:51;;;;;;;1.93;1.33;;;6.90;86.60;;;;;;5033510;28;20354;-73
2023/11/07 03:01:19;;;;;;;3.53;1.20;;;6.90;86.60;;;;;;5064618;28;20879;-74
2023/11/07 03:03:45;;;;;;;2.27;1.37;;;7.00;86.50;;;;;;5051193;28;20592;-73
2023/11/07 03:06:11;;;;;;;2.33;1.20;;;7.00;86.30;;;;;;5051239;28;20419;-71
2023/11/07 03:08:36;;;;;;;2.13;1.13;;;7.10;86.20;;;;;;5051708;28;20184;-73
2023/11/07 03:11:02;;;;;;;2.57;1.43;;;7.20;85.90;;;;;;5051826;28;20555;-74
2023/11/07 03:13:27;;;;;;;7.03;1.20;;;7.20;85.70;;;;;;5052493;28;20208;-73
2023/11/07 03:15:53;;;;;;;2.57;1.20;;;7.20;85.90;;;;;;5051677;28;20267;-74
2023/11/07 03:18:18;;;;;;;1.37;1.20;;;7.20;85.90;;;;;;5051176;28;20258;-73
2023/11/07 03:20:44;;;;;;;2.03;1.43;;;7.20;85.90;;;;;;5050938;28;20398;-73
2023/11/07 03:23:10;;;;;;;2.50;1.13;;;7.20;85.90;;;;;;5032536;28;20183;-74
2023/11/07 03:25:35;;;;;;;1.80;0.90;;;7.30;85.70;;;;;;5051384;28;20176;-74
2023/11/07 03:28:01;;;;;;;2.17;1.00;;;7.60;85.30;;;;;;5056492;23;20229;-75
2023/11/07 03:30:27;;;;;;;2.43;1.30;;;7.90;84.10;;;;;;5062776;28;21323;-74
2023/11/07 03:32:54;;;;;;;1.17;0.93;;;7.80;83.60;;;;;;5069915;28;20597;-75
2023/11/07 03:35:21;;;;;;;2.43;1.00;;;7.70;83.80;;;;;;5070163;28;20441;-75
2023/11/07 03:37:47;;;;;;;6.07;1.40;;;7.70;84.10;;;;;;5070283;28;20426;-75
2023/11/07 03:40:13;;;;;;;6.90;1.23;;;7.80;83.80;;;;;;5069888;28;20422;-74
2023/11/07 03:42:38;;;;;;;3.93;1.20;;;7.80;83.70;;;;;;5056268;28;20893;-76
2023/11/07 03:45:05;;;;;;;2.23;1.20;;;7.80;83.40;;;;;;5051517;28;20700;-74
2023/11/07 03:47:30;;;;;;;2.50;1.20;;;7.80;83.40;;;;;;5055264;28;20193;-75
2023/11/07 03:49:56;;;;;;;7.40;1.23;;;7.80;83.60;;;;;;5051343;28;20431;-73
2023/11/07 03:52:22;;;;;;;2.13;1.37;;;7.90;83.40;;;;;;5049753;28;20276;-74
2023/11/07 03:54:48;;;;;;;2.40;1.30;;;7.80;83.10;;;;;;5049574;28;20219;-74
2023/11/07 03:57:13;;;;;;;1.60;1.10;;;7.60;83.60;;;;;;5049762;28;20188;-74
2023/11/07 03:59:43;;;;;;;3.33;1.57;;;7.50;84.30;;;;;;5049928;28;20216;-74
2023/11/07 04:02:08;;;;;;;1.83;1.20;;;7.30;84.70;;;;;;5049798;28;20192;-74
2023/11/07 04:04:34;;;;;;;4.40;1.67;;;7.20;85.20;;;;;;5049520;28;20435;-73
2023/11/07 04:06:59;;;;;;;2.13;1.77;;;7.10;85.50;;;;;;5050355;28;20282;-73
2023/11/07 04:09:25;;;;;;;1.93;1.23;;;7.10;85.70;;;;;;5050759;28;20649;-76
2023/11/07 04:11:50;;;;;;;1.77;1.30;;;7.10;85.90;;;;;;5050332;28;20270;-74
2023/11/07 04:14:17;;;;;;;3.40;1.20;;;7.00;85.90;;;;;;5051327;28;20240;-73
2023/11/07 04:16:44;;;;;;;2.93;1.40;;;7.00;86.20;;;;;;5034684;28;20180;-75
2023/11/07 04:19:11;;;;;;;2.70;1.37;;;7.00;86.00;;;;;;5049914;28;20970;-74
2023/11/07 04:21:37;;;;;;;3.87;1.40;;;6.90;86.30;;;;;;5050104;28;20469;-74
2023/11/07 04:24:05;;;;;;;2.00;1.10;;;6.80;86.60;;;;;;5054029;28;20462;-74
2023/11/07 04:26:31;;;;;;;3.93;1.50;;;6.80;86.80;;;;;;5053357;28;20407;-74
2023/11/07 04:28:57;;;;;;;3.00;1.33;;;6.80;86.90;;;;;;5053168;28;20962;-74
2023/11/07 04:31:23;;;;;;;2.60;1.30;;;6.80;86.90;;;;;;5053076;28;20461;-74
2023/11/07 04:33:48;;;;;;;3.67;1.27;;;6.80;87.00;;;;;;5052930;28;20454;-74
2023/11/07 04:36:16;;;;;;;2.70;1.27;;;6.90;86.60;;;;;;5053230;28;20188;-74
2023/11/07 04:38:43;;;;;;;3.30;1.27;;;7.00;86.50;;;;;;5055066;28;20467;-73
2023/11/07 04:41:10;;;;;;;1.30;0.90;;;7.10;86.30;;;;;;5057755;28;20422;-75
2023/11/07 04:43:35;;;;;;;5.43;1.60;;;7.20;86.00;;;;;;5055263;28;20439;-75
2023/11/07 04:46:02;;;;;;;4.30;1.43;;;7.30;85.60;;;;;;5053699;28;20461;-74
2023/11/07 04:48:31;;;;;;;1.87;1.17;;;7.50;85.20;;;;;;5053383;28;20195;-74
2023/11/07 04:50:59;;;;;;;3.07;1.53;;;7.60;84.90;;;;;;5052874;28;20443;-74
2023/11/07 04:53:24;;;;;;;2.70;1.23;;;7.50;83.80;;;;;;5052211;28;20896;-74
2023/11/07 04:55:50;;;;;;;1.70;1.30;;;7.50;84.00;;;;;;5053465;28;20458;-74
2023/11/07 04:58:16;;;;;;;2.03;1.20;;;7.50;84.00;;;;;;5053145;28;20232;-75
2023/11/07 05:00:42;;;;;;;2.43;1.27;;;7.50;84.00;;;;;;5035663;28;20708;-74
2023/11/07 05:03:09;;;;;;;7.33;1.87;;;7.60;84.10;;;;;;5053205;28;20534;-74
2023/11/07 05:05:34;;;;;;;4.60;1.50;;;7.50;83.60;;;;;;5052776;28;20185;-76
2023/11/07 05:08:00;;;;;;;5.20;1.60;;;7.40;84.00;;;;;;5052936;28;20485;-75
2023/11/07 05:10:26;;;;;;;4.40;1.80;;;7.30;84.30;;;;;;5053391;28;20208;-74
2023/11/07 05:12:51;;;;;;;2.27;1.10;;;7.20;84.40;;;;;;5052208;28;20458;-74
2023/11/07 05:15:17;;;;;;;2.73;1.43;;;7.20;84.60;;;;;;5054057;28;20181;-74
2023/11/07 05:17:42;;;;;;;3.80;1.77;;;7.10;85.00;;;;;;5054010;28;20180;-75
2023/11/07 05:20:10;;;;;;;3.67;1.63;;;7.10;85.20;;;;;;5073486;28;20221;-73
2023/11/07 05:22:36;;;;;;;4.10;1.70;;;7.00;85.30;;;;;;5075461;28;20225;-75
2023/11/07 05:25:06;;;;;;;1.53;1.10;;;7.00;85.30;;;;;;5073777;28;20446;-76
2023/11/07 05:27:32;;;;;;;1.90;1.20;;;6.90;85.60;;;;;;5055447;28;20456;-76
2023/11/07 05:29:58;;;;;;;2.13;1.37;;;6.90;85.70;;;;;;5072952;28;20430;-76
2023/11/07 05:32:23;;;;;;;2.80;1.30;;;6.90;85.70;;;;;;5072357;28;20694;-75
2023/11/07 05:34:49;;;;;;;3.10;1.50;;;6.90;85.60;;;;;;5072358;28;20211;-75
2023/11/07 05:37:16;;;;;;;1.83;1.30;;;6.90;85.70;;;;;;5072527;28;20192;-75
2023/11/07 05:39:44;;;;;;;2.07;1.20;;;6.90;85.70;;;;;;5072582;28;20219;-74
2023/11/07 05:42:10;;;;;;;3.23;1.47;;;6.80;85.70;;;;;;5072661;28;20428;-76
2023/11/07 05:44:35;;;;;;;8.30;1.57;;;6.90;86.00;;;;;;5053911;28;20530;-74
2023/11/07 05:47:01;;;;;;;2.10;1.47;;;6.90;86.00;;;;;;5052577;28;20523;-76
2023/11/07 05:49:26;;;;;;;8.53;1.90;;;7.00;86.00;;;;;;5054806;28;20212;-76
2023/11/07 05:51:53;;;;;;;3.53;1.60;;;7.10;85.70;;;;;;5052450;28;20196;-75
2023/11/07 05:54:19;;;;;;;2.20;1.70;;;7.20;85.60;;;;;;5051927;28;20216;-74
2023/11/07 05:56:44;;;;;;;2.83;1.73;;;7.20;85.20;;;;;;5052389;28;20564;-74
2023/11/07 05:59:10;;;;;;;2.33;1.47;;;7.20;84.70;;;;;;5051971;28;20208;-74
2023/11/07 06:01:36;;;;;;;5.93;1.87;;;7.20;85.00;;;;;;5051729;28;20283;-74
2023/11/07 06:04:03;;;;;;;3.03;1.70;;;7.20;85.20;;;;;;5051090;28;20224;-75
2023/11/07 06:06:29;;;;;;;2.00;1.50;;;7.20;85.30;;;;;;5051718;28;20188;-76
2023/11/07 06:08:55;;;;;;;3.67;1.40;;;7.30;84.90;;;;;;5051487;28;20427;-74
2023/11/07 06:11:20;;;;;;;2.30;1.30;;;7.30;84.60;;;;;;5051419;28;20199;-75
2023/11/07 06:13:46;;;;;;;5.23;1.67;;;7.30;84.60;;;;;;5051902;28;20253;-75
2023/11/07 06:16:11;;;;;;;2.90;1.90;;;7.30;84.70;;;;;;5052343;28;20180;-75
2023/11/07 06:18:39;;;;;;;3.90;1.97;;;7.30;84.90;;;;;;5051137;28;20223;-75
2023/11/07 06:21:05;;;;;;;2.60;1.57;;;7.40;84.70;;;;;;5053014;28;20601;-75
2023/11/07 06:23:30;;;;;;;4.23;2.00;;;7.40;84.70;;;;;;5050662;28;21016;-74
2023/11/07 06:25:56;;;;;;;4.93;1.70;;;7.40;84.70;;;;;;5051637;28;20438;-76
2023/11/07 06:28:21;;;;;;;5.37;1.73;;;7.50;84.70;;;;;;5051207;28;20207;-74
2023/11/07 06:30:48;;;;;;;2.50;1.40;;;7.40;84.60;;;;;;5051529;28;20185;-73
2023/11/07 06:33:14;;;;;;;4.70;1.77;;;7.50;84.60;;;;;;5050314;28;20617;-77
2023/11/07 06:35:42;;;;;;;2.60;1.57;;;7.50;84.40;;;;;;5070928;28;20815;-75
2023/11/07 06:38:08;;;;;;;6.60;2.00;;;7.60;84.40;;;;;;5071090;28;20839;-75
2023/11/07 06:40:34;;;;;;;6.20;1.80;;;7.60;83.80;;;;;;5071338;28;20456;-74
2023/11/07 06:43:00;;;;;;;5.60;2.07;;;7.70;84.00;;;;;;5066568;28;20187;-74
2023/11/07 06:45:25;;;;;;;4.40;2.00;;;7.70;83.40;;;;;;5049941;28;20844;-75
2023/11/07 06:47:51;;;;;;;1.90;1.70;;;7.60;83.40;;;;;;5051737;28;20188;-73
2023/11/07 06:50:17;;;;;;;5.80;2.00;;;7.70;83.40;;;;;;5051468;28;20192;-75
2023/11/07 06:52:49;;;;;;;4.77;2.00;;;7.60;83.30;;;;;;5051394;28;20188;-74
2023/11/07 06:55:15;;;;;;;4.20;2.03;;;7.70;83.40;;;;;;5051495;28;20454;-74
2023/11/07 06:57:42;;;;;;;4.30;2.40;;;7.80;83.40;;;;;;5051877;28;20492;-75
2023/11/07 07:00:09;;;;;;;5.73;2.20;;;7.70;83.10;;;;;;5053625;28;20438;-75
2023/11/07 07:02:35;;;;;;;3.67;1.87;;;7.80;83.10;;;;;;5051088;28;20427;-76
2023/11/07 07:05:03;;;;;;;4.50;2.30;;;7.80;82.80;;;;;;5051776;28;20516;-74
2023/11/07 07:07:30;;;;;;;2.70;1.70;;;7.80;82.50;;;;;;5052117;28;20407;-75
2023/11/07 07:09:55;;;;;;;3.90;2.13;;;7.80;82.50;;;;;;5035025;28;20785;-74
2023/11/07 07:12:21;;;;;;;2.47;1.87;;;7.80;82.50;;;;;;5054038;28;20455;-75
2023/11/07 07:14:48;;;;;;;4.10;1.90;;;7.90;82.20;;;;;;5054181;28;20766;-75
2023/11/07 07:17:16;;;;;;;2.90;1.63;;;8.00;81.80;;;;;;5054764;28;20176;-73
2023/11/07 07:19:41;;;;;;;4.77;2.30;;;8.00;81.80;;;;;;5058885;28;20482;-73
2023/11/07 07:22:07;;;;;;;5.20;2.10;;;8.00;81.80;;;;;;5052730;28;20457;-76
2023/11/07 07:24:33;;;;;;;4.73;1.90;;;8.10;81.50;;;;;;5033986;28;20295;-74
2023/11/07 07:26:59;;;;;;;5.00;1.80;;;8.00;81.50;;;;;;5051068;28;20195;-75
2023/11/07 07:29:26;;;;;;;3.87;1.63;;;8.10;81.10;;;;;;5050794;28;20453;-76
2023/11/07 07:31:52;;;;;;;3.03;1.40;;;8.10;81.10;;;;;;5050493;28;20595;-76
2023/11/07 07:34:18;;;;;;;2.40;1.30;;;8.20;80.30;;;;;;5049965;28;20479;-75
2023/11/07 07:36:44;;;;;;;2.13;1.00;;;8.50;79.00;;;;;;5050266;28;20862;-74
2023/11/07 07:39:29;;;;;;;1.80;1.20;;;8.60;78.00;;;;;;5050539;28;20345;-75
2023/11/07 07:42:00;;;;;;;2.33;1.43;;;8.80;77.40;;;;;;5050457;28;20429;-74
2023/11/07 07:44:30;;;;;;;2.80;1.20;;;8.90;76.80;;;;;;5049882;28;20427;-75
2023/11/07 07:46:57;;;;;;;3.33;1.60;;;9.00;76.40;;;;;;5050571;28;20928;-76
2023/11/07 07:49:26;;;;;;;1.97;1.20;;;9.00;76.10;;;;;;5050782;28;20419;-76
2023/11/07 07:51:58;;;;;;;2.30;1.43;;;9.10;75.50;;;;;;5051439;28;20431;-73
2023/11/07 07:54:24;;;;;;;2.60;1.40;;;9.10;75.20;;;;;;5051815;28;20444;-76
2023/11/07 07:56:54;;;;;;;3.23;1.70;;;9.10;75.10;;;;;;5053531;28;20446;-74
2023/11/07 07:59:23;;;;;;;3.87;1.37;;;9.20;75.20;;;;;;5055359;28;20925;-73
2023/11/07 08:01:53;;;;;;;3.37;1.47;;;9.20;75.10;;;;;;5054517;28;20818;-76
2023/11/07 08:04:28;;;;;;;2.80;1.37;;;9.30;75.10;;;;;;5057892;28;20469;-72
2023/11/07 08:06:55;;;;;;;2.73;1.33;;;9.30;74.90;;;;;;5041709;28;21006;-74
2023/11/07 08:09:22;;;;;;;1.77;1.20;;;9.30;74.90;;;;;;5056037;28;20454;-74
2023/11/07 08:11:50;;;;;;;3.70;1.30;;;9.40;74.90;;;;;;5055151;28;20430;-75
2023/11/07 08:14:16;;;;;;;3.30;1.20;;;9.50;74.80;;;;;;5053988;28;20459;-76
2023/11/07 08:16:43;;;;;;;1.67;1.10;;;9.50;74.60;;;;;;5054835;28;20449;-75
2023/11/07 08:19:09;;;;;;;1.30;1.00;;;9.60;74.30;;;;;;5056804;28;20480;-75
2023/11/07 08:21:39;;;;;;;2.40;1.27;;;9.60;74.20;;;;;;5059574;28;20445;-76
2023/11/07 08:24:09;;;;;;;2.80;1.13;;;9.60;74.20;;;;;;5054619;28;20514;-75
2023/11/07 08:26:35;;;;;;;1.23;0.90;;;9.70;74.20;;;;;;5055248;28;20548;-75
2023/11/07 08:29:06;;;;;;;2.03;1.33;;;9.70;74.20;;;;;;5056743;28;20950;-75
2023/11/07 08:31:34;;;;;;;2.70;1.30;;;9.70;73.90;;;;;;5054802;28;20453;-76
2023/11/07 08:34:00;;;;;;;2.87;1.23;;;9.80;73.70;;;;;;5056478;28;20478;-76
2023/11/07 08:36:27;;;;;;;1.60;1.00;;;9.80;73.60;;;;;;5071026;28;20487;-76
2023/11/07 08:38:53;;;;;;;3.13;1.20;;;9.90;73.60;;;;;;5078058;28;20470;-75
2023/11/07 08:41:19;;;;;;;3.10;1.40;;;9.90;73.70;;;;;;5056369;28;20427;-73
2023/11/07 08:43:46;;;;;;;2.63;1.40;;;10.00;73.90;;;;;;5055251;28;20470;-74
2023/11/07 08:46:18;;;;;;;2.60;1.20;;;10.00;73.60;;;;;;5055030;28;20494;-77
2023/11/07 08:48:44;;;;;;;4.90;1.40;;;10.00;73.60;;;;;;5055238;28;20443;-76
2023/11/07 08:51:10;;;;;;;2.13;1.50;;;10.10;73.70;;;;;;5054344;28;20420;-76
2023/11/07 08:53:35;;;;;;;3.07;1.60;;;10.10;73.50;;;;;;5056007;28;20676;-74
2023/11/07 08:56:03;;;;;;;4.90;1.53;;;10.10;73.70;;;;;;5057743;28;20555;-74
2023/11/07 08:58:30;;;;;;;3.77;1.20;;;10.20;73.30;;;;;;5035986;28;20214;-75
2023/11/07 09:00:58;;;;;;;2.53;1.27;;;10.20;73.20;;;;;;5053210;28;20430;-76
2023/11/07 09:03:24;;;;;;;2.23;1.30;;;10.30;73.20;;;;;;5054020;28;20451;-74
2023/11/07 09:05:50;;;;;;;6.27;1.50;;;10.30;73.20;;;;;;5055688;28;20510;-76
2023/11/07 09:08:15;;;;;;;3.90;1.50;;;10.30;73.20;;;;;;5057456;28;20446;-74
2023/11/07 09:10:41;;;;;;;2.10;0.97;;;10.30;73.20;;;;;;5054302;28;20188;-75
2023/11/07 09:13:07;;;;;;;2.10;1.10;;;10.40;73.00;;;;;;5053984;28;20679;-76
2023/11/07 09:15:33;;;;;;;3.60;1.47;;;10.40;73.00;;;;;;5055395;28;20196;-76
2023/11/07 09:17:59;;;;;;;4.03;1.63;;;10.40;72.90;;;;;;5055558;28;20427;-73
2023/11/07 09:20:25;;;;;;;2.20;1.40;;;10.40;72.90;;;;;;5054852;28;20223;-75
2023/11/07 09:22:50;;;;;;;3.80;1.37;;;10.50;72.70;;;;;;5054822;28;20184;-75
2023/11/07 09:25:16;;;;;;;4.43;1.63;;;10.60;72.60;;;;;;5055335;28;20688;-74
2023/11/07 09:27:41;;;;;;;1.50;0.90;;;10.60;72.40;;;;;;5054690;28;20212;-77
2023/11/07 09:30:09;;;;;;;3.10;1.30;;;10.70;72.30;;;;;;5055540;28;20215;-75
2023/11/07 09:32:38;;;;;;;2.13;1.07;;;10.80;71.80;;;;;;5054872;28;20294;-75
2023/11/07 09:35:08;;;;;;;2.67;1.37;;;10.80;71.70;;;;;;5072515;28;20449;-72
2023/11/07 09:37:39;;;;;;;1.70;0.80;;;10.80;71.70;;;;;;5075883;28;20430;-74
2023/11/07 09:40:09;;;;;;;1.90;1.20;;;10.80;71.60;;;;;;5061481;28;20491;-75
2023/11/07 09:42:35;;;;;;;2.20;1.00;;;10.90;71.70;;;;;;5054031;28;20506;-77
2023/11/07 09:45:09;;;;;;;4.20;1.00;;;11.00;71.40;;;;;;5036996;28;20601;-76
2023/11/07 09:47:34;;;;;;;1.70;1.20;;;11.10;71.40;;;;;;5037616;28;20188;-75
2023/11/07 09:50:04;;;;;;;2.37;1.43;;;11.20;70.80;;;;;;5056350;28;20431;-75
2023/11/07 09:52:32;;;;;;;1.90;0.93;;;11.20;70.80;;;;;;5055364;28;20627;-75
2023/11/07 09:54:59;;;;;;;1.80;1.00;;;11.40;70.80;;;;;;5055237;28;20457;-75
2023/11/07 09:57:27;;;;;;;2.17;1.00;;;11.60;70.50;;;;;;5055123;28;20457;-74
2023/11/07 09:59:53;;;;;;;1.97;1.03;;;11.70;69.50;;;;;;5065497;28;20469;-75
2023/11/07 10:02:21;;;;;;;2.40;1.20;;;11.70;69.40;;;;;;5076060;28;20950;-75
2023/11/07 10:04:49;;;;;;;2.37;1.23;;;11.90;69.40;;;;;;5076276;28;20446;-75
2023/11/07 10:07:15;;;;;;;1.07;0.80;;;11.90;69.20;;;;;;5058878;28;20466;-75
2023/11/07 10:09:40;;;;;;;1.40;0.90;;;11.90;68.90;;;;;;5054288;28;20427;-75
2023/11/07 10:12:16;;;;;;;2.63;1.27;;;11.80;69.10;;;;;;5054279;28;20181;-76
2023/11/07 10:14:41;;;;;;;2.13;1.00;;;11.80;69.10;;;;;;5053076;28;20287;-77
2023/11/07 10:17:19;;;;;;;2.40;0.90;;;11.70;68.30;;;;;;5055173;28;20451;-74
2023/11/07 10:19:44;;;;;;;1.50;0.90;;;11.80;68.80;;;;;;5052716;28;20212;-75
2023/11/07 10:22:10;;;;;;;1.27;1.00;;;11.80;67.90;;;;;;5053284;28;20996;-76
2023/11/07 10:24:44;;;;;;;1.83;1.10;;;11.90;68.30;;;;;;5052642;28;20217;-75
2023/11/07 10:27:11;;;;;;;5.93;1.17;;;11.90;68.20;;;;;;5052729;28;20184;-75
2023/11/07 10:29:51;;;;;;;1.93;1.10;;;11.90;68.50;;;;;;5053076;28;20426;-75
2023/11/07 10:32:17;;;;;;;1.60;1.10;;;11.90;68.20;;;;;;5051930;28;20425;-76
2023/11/07 10:34:43;;;;;;;2.70;1.20;;;11.90;68.30;;;;;;5051517;28;20434;-76
2023/11/07 10:37:09;;;;;;;1.97;0.97;;;11.80;68.30;;;;;;5052236;28;20442;-76
2023/11/07 10:39:35;;;;;;;1.60;0.90;;;11.80;67.60;;;;;;5051775;28;20502;-75
2023/11/07 10:42:18;;;;;;;1.60;0.80;;;11.70;67.60;;;;;;5052068;28;20200;-77
2023/11/07 10:44:45;;;;;;;1.70;1.00;;;11.80;67.70;;;;;;5051086;28;20310;-76
2023/11/07 10:47:10;;;;;;;1.73;0.90;;;12.00;67.60;;;;;;5051838;28;20692;-77
2023/11/07 10:49:36;;;;;;;1.63;0.80;;;12.00;67.50;;;;;;5051766;28;20997;-74
2023/11/07 10:52:05;;;;;;;1.53;0.90;;;12.10;67.60;;;;;;5051465;28;20188;-75
2023/11/07 10:54:31;;;;;;;2.73;0.67;;;12.20;67.20;;;;;;5053708;28;20880;-74
2023/11/07 10:57:02;;;;;;;1.07;0.70;;;12.10;67.20;;;;;;5041478;28;20427;-74
2023/11/07 10:59:30;;;;;;;2.33;0.77;;;12.00;67.50;;;;;;5058724;28;20470;-74
2023/11/07 11:01:59;;;;;;;1.77;0.97;;;11.90;67.90;;;;;;5059276;28;20488;-76
2023/11/07 11:04:29;;;;;;;1.43;0.80;;;11.70;68.20;;;;;;5057485;28;20442;-75
2023/11/07 11:07:02;;;;;;;0.90;0.60;;;11.60;68.60;;;;;;5052686;28;20770;-76
2023/11/07 11:09:28;;;;;;;1.77;0.63;;;11.40;69.20;;;;;;5051476;28;20430;-76
2023/11/07 11:11:58;;;;;;;1.77;0.80;;;11.20;70.10;;;;;;5052170;28;20419;-76
2023/11/07 11:14:25;;;;;;;2.57;0.97;;;11.00;72.00;;;;;;5051363;28;20435;-74
2023/11/07 11:16:54;;;;;;;2.20;1.03;;;10.90;73.60;;;;;;5051572;28;20431;-76
2023/11/07 11:19:38;;;;;;;1.57;0.93;;;10.80;74.80;;;;;;5032629;28;20471;-75
2023/11/07 11:22:21;;;;;;;1.97;1.13;;;10.70;75.50;;;;;;5050335;28;20421;-77
2023/11/07 11:25:16;;;;;;;1.93;0.90;;;10.60;76.50;;;;;;5043806;28;20456;-76
2023/11/07 11:27:47;;;;;;;2.50;1.07;;;10.50;77.70;;;;;;5071101;28;20466;-77
2023/11/07 11:30:13;;;;;;;1.97;1.00;;;10.40;77.70;;;;;;5070511;28;20426;-75
2023/11/07 11:32:43;;;;;;;1.73;1.00;;;10.30;78.40;;;;;;5063260;28;20433;-76
2023/11/07 11:35:12;;;;;;;1.30;1.00;;;10.30;79.30;;;;;;5037368;28;20200;-75
2023/11/07 11:40:59;;;;;;;1.87;1.00;;;10.20;79.70;;;;;;5055223;28;20431;-77
2023/11/07 11:43:31;;;;;;;1.70;1.00;;;10.20;80.20;;;;;;5037006;28;20446;-75
2023/11/07 11:45:58;;;;;;;1.00;0.80;;;10.20;80.30;;;;;;5056776;28;20450;-77
2023/11/07 11:48:52;;;;;;;1.60;1.17;;;10.30;79.90;;;;;;5055987;28;20462;-75
2023/11/07 11:51:38;;;;;;;1.17;0.97;;;10.30;80.20;;;;;;5055151;28;20509;-76
2023/11/07 11:54:08;;;;;;;2.40;1.50;;;10.40;80.50;;;;;;5054743;28;20470;-74
2023/11/07 11:56:34;;;;;;;0.90;0.80;;;10.60;80.80;;;;;;5055813;28;20506;-77
2023/11/07 11:59:09;;;;;;;2.20;1.40;;;10.80;78.70;;;;;;5056962;28;20516;-76
2023/11/07 12:01:56;;;;;;;1.90;1.30;;;10.80;78.90;;;;;;5060053;28;20422;-75
2023/11/07 12:04:32;;;;;;;1.90;0.80;;;10.80;78.40;;;;;;5077477;28;20460;-77
2023/11/07 12:07:10;;;;;;;3.27;1.20;;;10.80;76.40;;;;;;5078118;28;20418;-76
2023/11/07 12:09:47;;;;;;;2.53;1.20;;;10.90;77.60;;;;;;5077446;28;20420;-74
2023/11/07 12:12:17;;;;;;;6.37;1.20;;;11.00;77.40;;;;;;5077686;28;20892;-74
2023/11/07 12:15:00;;;;;;;1.83;0.90;;;11.00;77.40;;;;;;5078118;28;20437;-74
2023/11/07 12:17:28;;;;;;;3.00;1.43;;;11.10;76.70;;;;;;5075963;28;20432;-77
2023/11/07 12:20:11;;;;;;;3.33;1.17;;;11.10;75.20;;;;;;5078021;28;20481;-76
2023/11/07 12:22:37;;;;;;;1.20;1.00;;;11.30;75.10;;;;;;5081591;28;20441;-75
2023/11/07 12:25:19;;;;;;;2.00;1.40;;;11.40;74.30;;;;;;5076436;28;20527;-76
2023/11/07 12:28:03;;;;;;;1.90;1.20;;;11.50;73.50;;;;;;5075895;28;20449;-76
2023/11/07 12:30:29;;;;;;;2.50;1.57;;;11.70;72.40;;;;;;5075289;28;20489;-75
2023/11/07 12:33:03;;;;;;;1.60;1.00;;;11.90;72.10;;;;;;5064075;28;20461;-76
2023/11/07 12:35:30;;;;;;;1.60;1.10;;;11.90;71.40;;;;;;5056373;28;20431;-72
2023/11/07 12:38:11;;;;;;;2.27;0.80;;;11.90;70.70;;;;;;5056021;28;20431;-76
2023/11/07 12:40:39;;;;;;;2.70;1.40;;;11.70;71.30;;;;;;5056352;28;20445;-73
2023/11/07 12:43:07;;;;;;;0.90;0.70;;;11.80;72.10;;;;;;5056210;28;20502;-74
2023/11/07 12:45:37;;;;;;;2.67;0.80;;;12.00;71.40;;;;;;5057464;28;20415;-75
2023/11/07 12:48:04;;;;;;;1.97;0.90;;;12.10;70.20;;;;;;5065401;28;20514;-74
2023/11/07 12:50:42;;;;;;;2.53;0.80;;;12.00;69.80;;;;;;5072206;28;20431;-72
2023/11/07 12:53:08;;;;;;;0.80;0.63;;;11.80;69.10;;;;;;5073091;28;20419;-73
2023/11/07 12:55:37;;;;;;;2.73;0.70;;;11.70;68.60;;;;;;5073908;28;20533;-74
2023/11/07 12:58:06;;;;;;;1.07;0.70;;;11.60;68.60;;;;;;5074624;28;20212;-74